Airfield :
LOGIN :

Register | Disclaimer

   EN    FR    IT 

 










Legend :    VFR   Marginal VFR   IFR   Intensive IFR   Very Intensive IFR
Visi :
Ceiling :
>= 8 km
>= 3000ft
5 to 8 km
1000 to 3000 ft
1500m to 5 km
500 to 1000 ft
800 to 1500m
200 to 500 ft
< 800m
< 200 ft
Symbols :   Thunderstorms  Fog  Heavy snow  Heavy precipitations  Wind > 20 kt
SIGMETs :     Misc.  Thunderstorms  Icing  Turbulence  Mountain Waves  Volcanic Ashes






- Airport Elevation : 1273 ft
- IATA code : LJU


LJLJ - Ljubljana

CURRENT METAR :
  • 050700Z VRB02KT 9999 FEW003 SCT040 BKN100 18/16 Q1006 NOSIG

EXPIRED METARs :
  • 050630Z VRB02KT 9999 FEW003 SCT040 BKN100 17/16 Q1006 NOSIG
  • 050600Z 00000KT 9999 FEW003 SCT040 BKN100 17/16 Q1006 NOSIG
  • 050530Z VRB01KT 9999 FEW003 SCT033 BKN100 16/16 Q1006 NOSIG
  • 050500Z VRB02KT 9999 FEW003 BKN010 16/16 Q1007 NOSIG
  • 050430Z VRB02KT 9999 BKN003 16/16 Q1007 NOSIG
  • 050400Z 27004KT 150V300 9999 FEW002 SCT130 16/16 Q1007 NOSIG

TAF TAF LJLJ
Valid from the 05 at 06:00 until the 06 at 06:00 UTC


050500Z 0506/0606 VRB02KT 9999 FEW040 BKN070
TEMPO 0506/0512 8000 SHRA BKN040TCU
PROB40
TEMPO 0506/0512 32010G20KT 6000 TSRA BKN040CB
BECMG 0512/0514 FEW020
TEMPO 0516/0524 SCT030 BKN070
PROB40
TEMPO 0600/0606 1000 BCFG FEW002 BKN060



MET'MAP, your aeronautical weather chart ! - Copyright ORBIFLY December 2007 - Disclaimer

ORBIFLY MET'MAP TEAM :

Programming & Development : Alexandra Zaïnal
Concept & original design : Baudouin d'Aumeries
Assistance for programming : Marc-Olivier Méhu
Technical & hardware support : Manuel Goepfert

Contact : metmap@orbifly.com




SOURCES & CREDITS :

   NOAA